sensor_id;sensor_type;location;lat;lon;timestamp;pressure;altitude;pressure_sealevel;temperature;humidity
11912;BME280;6016;41.928;25.556;2023-05-21T00:00:24;98780.72;;;18.64;68.44
11912;BME280;6016;41.928;25.556;2023-05-21T00:02:51;98777.66;;;18.67;68.06
11912;BME280;6016;41.928;25.556;2023-05-21T00:05:18;98724.94;;;18.34;68.20
11912;BME280;6016;41.928;25.556;2023-05-21T00:07:45;98682.16;;;18.14;67.33
11912;BME280;6016;41.928;25.556;2023-05-21T00:10:12;98777.03;;;18.72;67.37
11912;BME280;6016;41.928;25.556;2023-05-21T00:12:39;98776.00;;;18.66;68.18
11912;BME280;6016;41.928;25.556;2023-05-21T00:15:09;98768.59;;;18.68;67.52
11912;BME280;6016;41.928;25.556;2023-05-21T00:17:36;98674.09;;;18.07;66.76
11912;BME280;6016;41.928;25.556;2023-05-21T00:20:05;98600.84;;;17.68;67.64
11912;BME280;6016;41.928;25.556;2023-05-21T00:22:33;98757.91;;;18.68;67.44
11912;BME280;6016;41.928;25.556;2023-05-21T00:25:00;98640.16;;;17.94;66.84
11912;BME280;6016;41.928;25.556;2023-05-21T00:27:27;98694.72;;;18.27;68.10
11912;BME280;6016;41.928;25.556;2023-05-21T00:29:54;98726.66;;;18.55;67.56
11912;BME280;6016;41.928;25.556;2023-05-21T00:32:22;98739.44;;;18.67;67.33
11912;BME280;6016;41.928;25.556;2023-05-21T00:34:49;98726.41;;;18.44;68.43
11912;BME280;6016;41.928;25.556;2023-05-21T00:37:16;98685.09;;;18.33;67.53
11912;BME280;6016;41.928;25.556;2023-05-21T00:39:43;98752.16;;;18.65;67.68
11912;BME280;6016;41.928;25.556;2023-05-21T00:42:09;98743.13;;;18.66;67.08
11912;BME280;6016;41.928;25.556;2023-05-21T00:44:36;98650.47;;;18.04;67.20
11912;BME280;6016;41.928;25.556;2023-05-21T00:47:04;98744.97;;;18.72;67.31
11912;BME280;6016;41.928;25.556;2023-05-21T00:49:34;98735.53;;;18.76;67.37
11912;BME280;6016;41.928;25.556;2023-05-21T00:52:00;98444.38;;;16.84;67.13
11912;BME280;6016;41.928;25.556;2023-05-21T00:54:29;98691.06;;;18.41;67.24
11912;BME280;6016;41.928;25.556;2023-05-21T00:56:56;98686.94;;;18.39;68.34
11912;BME280;6016;41.928;25.556;2023-05-21T00:59:23;98670.06;;;18.25;67.85
11912;BME280;6016;41.928;25.556;2023-05-21T01:01:51;98586.69;;;17.67;67.33
11912;BME280;6016;41.928;25.556;2023-05-21T01:04:21;98728.94;;;18.65;67.09
11912;BME280;6016;41.928;25.556;2023-05-21T01:06:49;98714.06;;;18.42;67.29
11912;BME280;6016;41.928;25.556;2023-05-21T01:09:17;98736.06;;;18.45;68.52
11912;BME280;6016;41.928;25.556;2023-05-21T01:11:46;98665.50;;;18.19;67.86
11912;BME280;6016;41.928;25.556;2023-05-21T01:14:15;98716.72;;;18.36;68.27
11912;BME280;6016;41.928;25.556;2023-05-21T01:16:45;98728.88;;;18.45;68.34
11912;BME280;6016;41.928;25.556;2023-05-21T01:19:15;98685.19;;;18.11;67.54
11912;BME280;6016;41.928;25.556;2023-05-21T01:21:45;98677.44;;;18.16;68.28
11912;BME280;6016;41.928;25.556;2023-05-21T01:24:14;98663.22;;;18.09;67.90
11912;BME280;6016;41.928;25.556;2023-05-21T01:26:41;98714.50;;;18.46;68.36
11912;BME280;6016;41.928;25.556;2023-05-21T01:29:09;98672.28;;;18.14;68.52
11912;BME280;6016;41.928;25.556;2023-05-21T01:31:47;98646.34;;;18.02;68.95
11912;BME280;6016;41.928;25.556;2023-05-21T01:34:20;98606.00;;;17.76;67.89
11912;BME280;6016;41.928;25.556;2023-05-21T01:36:52;98715.53;;;18.52;67.83
11912;BME280;6016;41.928;25.556;2023-05-21T01:39:25;98714.94;;;18.56;67.55
11912;BME280;6016;41.928;25.556;2023-05-21T01:41:53;98711.66;;;18.54;67.75
11912;BME280;6016;41.928;25.556;2023-05-21T01:44:22;98709.59;;;18.56;69.09
11912;BME280;6016;41.928;25.556;2023-05-21T01:46:51;98600.09;;;17.88;68.42
11912;BME280;6016;41.928;25.556;2023-05-21T01:49:19;98698.06;;;18.56;68.78
11912;BME280;6016;41.928;25.556;2023-05-21T01:51:47;98685.53;;;18.43;67.94
11912;BME280;6016;41.928;25.556;2023-05-21T01:54:14;98707.75;;;18.57;68.44
11912;BME280;6016;41.928;25.556;2023-05-21T01:56:43;98707.75;;;18.57;67.55
11912;BME280;6016;41.928;25.556;2023-05-21T01:59:10;98714.09;;;18.49;67.75
11912;BME280;6016;41.928;25.556;2023-05-21T02:01:37;98684.03;;;18.27;68.91
11912;BME280;6016;41.928;25.556;2023-05-21T02:04:04;98694.13;;;18.38;68.29
11912;BME280;6016;41.928;25.556;2023-05-21T02:06:31;98710.81;;;18.47;67.51
11912;BME280;6016;41.928;25.556;2023-05-21T02:08:57;98681.97;;;18.29;68.02
11912;BME280;6016;41.928;25.556;2023-05-21T02:11:25;98627.47;;;18.03;67.05
11912;BME280;6016;41.928;25.556;2023-05-21T02:13:53;98707.34;;;18.53;67.14
11912;BME280;6016;41.928;25.556;2023-05-21T02:16:21;98676.00;;;18.20;67.13
11912;BME280;6016;41.928;25.556;2023-05-21T02:18:48;98702.81;;;18.54;67.08
11912;BME280;6016;41.928;25.556;2023-05-21T02:21:17;98676.63;;;18.22;67.63
11912;BME280;6016;41.928;25.556;2023-05-21T02:23:45;98712.84;;;18.45;67.25
11912;BME280;6016;41.928;25.556;2023-05-21T02:26:12;98632.97;;;17.95;67.64
11912;BME280;6016;41.928;25.556;2023-05-21T02:28:39;98699.66;;;18.37;67.94
11912;BME280;6016;41.928;25.556;2023-05-21T02:31:07;98696.84;;;18.52;67.92
11912;BME280;6016;41.928;25.556;2023-05-21T02:33:34;98712.47;;;18.55;67.40
11912;BME280;6016;41.928;25.556;2023-05-21T02:36:00;98697.44;;;18.47;67.36
11912;BME280;6016;41.928;25.556;2023-05-21T02:38:28;98709.19;;;18.53;68.60
11912;BME280;6016;41.928;25.556;2023-05-21T02:40:56;98715.13;;;18.55;68.57
11912;BME280;6016;41.928;25.556;2023-05-21T02:43:23;98704.44;;;18.55;68.83
11912;BME280;6016;41.928;25.556;2023-05-21T02:45:50;98711.03;;;18.52;68.60
11912;BME280;6016;41.928;25.556;2023-05-21T02:48:18;98710.81;;;18.54;67.99
11912;BME280;6016;41.928;25.556;2023-05-21T02:50:45;98625.66;;;18.04;68.51
11912;BME280;6016;41.928;25.556;2023-05-21T02:53:12;98566.81;;;17.70;68.16
11912;BME280;6016;41.928;25.556;2023-05-21T02:55:39;98670.25;;;18.23;67.91
11912;BME280;6016;41.928;25.556;2023-05-21T02:58:06;98648.88;;;18.17;69.28
11912;BME280;6016;41.928;25.556;2023-05-21T03:00:33;98706.31;;;18.54;69.62
11912;BME280;6016;41.928;25.556;2023-05-21T03:03:00;98703.41;;;18.56;69.37
11912;BME280;6016;41.928;25.556;2023-05-21T03:05:28;98696.81;;;18.45;69.33
11912;BME280;6016;41.928;25.556;2023-05-21T03:07:55;98704.84;;;18.52;69.51
11912;BME280;6016;41.928;25.556;2023-05-21T03:10:22;98628.94;;;18.06;69.25
11912;BME280;6016;41.928;25.556;2023-05-21T03:12:49;98708.97;;;18.54;69.58
11912;BME280;6016;41.928;25.556;2023-05-21T03:15:15;98683.88;;;18.35;69.68
11912;BME280;6016;41.928;25.556;2023-05-21T03:17:42;98709.59;;;18.50;69.57
11912;BME280;6016;41.928;25.556;2023-05-21T03:20:09;98706.06;;;18.49;69.75
11912;BME280;6016;41.928;25.556;2023-05-21T03:22:43;98728.69;;;18.47;68.87
11912;BME280;6016;41.928;25.556;2023-05-21T03:25:10;98710.63;;;18.49;69.29
11912;BME280;6016;41.928;25.556;2023-05-21T03:27:38;98635.31;;;18.05;69.20
11912;BME280;6016;41.928;25.556;2023-05-21T03:30:06;98640.59;;;17.98;69.15
11912;BME280;6016;41.928;25.556;2023-05-21T03:32:33;98713.44;;;18.34;69.03
11912;BME280;6016;41.928;25.556;2023-05-21T03:35:02;98709.78;;;18.48;69.00
11912;BME280;6016;41.928;25.556;2023-05-21T03:37:29;98705.69;;;18.52;69.49
11912;BME280;6016;41.928;25.556;2023-05-21T03:39:57;98701.13;;;18.39;69.10
11912;BME280;6016;41.928;25.556;2023-05-21T03:42:24;98712.69;;;18.53;68.82
11912;BME280;6016;41.928;25.556;2023-05-21T03:44:51;98705.63;;;18.39;68.48
11912;BME280;6016;41.928;25.556;2023-05-21T03:47:18;98668.16;;;18.12;67.69
11912;BME280;6016;41.928;25.556;2023-05-21T03:49:45;98706.50;;;18.53;68.28
11912;BME280;6016;41.928;25.556;2023-05-21T03:52:11;98714.91;;;18.43;68.72
11912;BME280;6016;41.928;25.556;2023-05-21T03:54:38;98671.72;;;18.33;69.63
11912;BME280;6016;41.928;25.556;2023-05-21T03:57:06;98693.53;;;18.43;69.10
11912;BME280;6016;41.928;25.556;2023-05-21T03:59:33;98651.78;;;18.15;69.72
11912;BME280;6016;41.928;25.556;2023-05-21T04:02:00;98701.75;;;18.48;69.21
11912;BME280;6016;41.928;25.556;2023-05-21T04:04:27;98653.78;;;18.13;69.54
11912;BME280;6016;41.928;25.556;2023-05-21T04:06:54;98718.41;;;18.50;71.65
11912;BME280;6016;41.928;25.556;2023-05-21T04:09:21;98664.06;;;18.09;73.04
11912;BME280;6016;41.928;25.556;2023-05-21T04:11:48;98713.69;;;18.46;74.05
11912;BME280;6016;41.928;25.556;2023-05-21T04:14:16;98731.56;;;18.45;74.31
11912;BME280;6016;41.928;25.556;2023-05-21T04:16:43;98727.22;;;18.37;75.85
11912;BME280;6016;41.928;25.556;2023-05-21T04:19:09;98731.09;;;18.35;76.79
11912;BME280;6016;41.928;25.556;2023-05-21T04:21:36;98720.78;;;18.18;77.64
11912;BME280;6016;41.928;25.556;2023-05-21T04:24:03;98731.00;;;18.14;79.32
11912;BME280;6016;41.928;25.556;2023-05-21T04:26:30;98699.72;;;18.02;80.79
11912;BME280;6016;41.928;25.556;2023-05-21T04:28:58;98717.44;;;18.09;81.49
11912;BME280;6016;41.928;25.556;2023-05-21T04:31:29;98743.81;;;18.26;82.01
11912;BME280;6016;41.928;25.556;2023-05-21T04:33:56;98744.41;;;18.21;81.86
11912;BME280;6016;41.928;25.556;2023-05-21T04:36:24;98744.56;;;18.20;82.96
11912;BME280;6016;41.928;25.556;2023-05-21T04:38:53;98746.84;;;18.16;84.01
11912;BME280;6016;41.928;25.556;2023-05-21T04:41:20;98745.91;;;18.02;83.25
11912;BME280;6016;41.928;25.556;2023-05-21T04:43:47;98733.44;;;18.03;83.38
11912;BME280;6016;41.928;25.556;2023-05-21T04:46:19;98742.28;;;18.10;83.50
11912;BME280;6016;41.928;25.556;2023-05-21T04:48:51;98740.63;;;18.09;84.13
11912;BME280;6016;41.928;25.556;2023-05-21T04:51:19;98709.06;;;17.84;83.94
11912;BME280;6016;41.928;25.556;2023-05-21T04:53:46;98730.06;;;17.94;82.14
11912;BME280;6016;41.928;25.556;2023-05-21T04:56:15;98743.81;;;17.97;82.97
11912;BME280;6016;41.928;25.556;2023-05-21T04:58:43;98644.34;;;17.33;84.17
11912;BME280;6016;41.928;25.556;2023-05-21T05:01:10;98749.44;;;18.03;84.64
11912;BME280;6016;41.928;25.556;2023-05-21T05:03:37;98722.81;;;17.81;84.43
11912;BME280;6016;41.928;25.556;2023-05-21T05:06:05;98687.44;;;17.65;82.84
11912;BME280;6016;41.928;25.556;2023-05-21T05:08:33;98643.31;;;17.34;84.10
11912;BME280;6016;41.928;25.556;2023-05-21T05:11:00;98762.38;;;18.06;84.71
11912;BME280;6016;41.928;25.556;2023-05-21T05:13:27;98687.72;;;17.49;85.06
11912;BME280;6016;41.928;25.556;2023-05-21T05:15:54;98773.06;;;18.06;85.83
11912;BME280;6016;41.928;25.556;2023-05-21T05:18:21;98709.03;;;17.77;85.34
11912;BME280;6016;41.928;25.556;2023-05-21T05:20:48;98754.81;;;18.09;84.77
11912;BME280;6016;41.928;25.556;2023-05-21T05:23:16;98753.78;;;18.10;84.56
11912;BME280;6016;41.928;25.556;2023-05-21T05:25:43;98752.97;;;18.10;84.79
11912;BME280;6016;41.928;25.556;2023-05-21T05:28:10;98755.00;;;18.08;85.06
11912;BME280;6016;41.928;25.556;2023-05-21T05:30:37;98692.94;;;17.64;85.39
11912;BME280;6016;41.928;25.556;2023-05-21T05:33:04;98768.94;;;18.03;85.89
11912;BME280;6016;41.928;25.556;2023-05-21T05:35:31;98734.94;;;17.83;85.79
11912;BME280;6016;41.928;25.556;2023-05-21T05:37:58;98735.56;;;17.85;86.29
11912;BME280;6016;41.928;25.556;2023-05-21T05:40:27;98587.25;;;16.92;86.08
11912;BME280;6016;41.928;25.556;2023-05-21T05:42:55;98779.81;;;18.02;86.70
11912;BME280;6016;41.928;25.556;2023-05-21T05:45:22;98777.94;;;18.02;86.41
11912;BME280;6016;41.928;25.556;2023-05-21T05:47:51;98735.09;;;17.75;87.25
11912;BME280;6016;41.928;25.556;2023-05-21T05:50:17;98546.03;;;16.59;87.63
11912;BME280;6016;41.928;25.556;2023-05-21T05:52:45;98765.81;;;17.99;88.43
11912;BME280;6016;41.928;25.556;2023-05-21T05:55:12;98768.13;;;18.03;88.20
11912;BME280;6016;41.928;25.556;2023-05-21T05:57:40;98764.84;;;18.07;87.99
11912;BME280;6016;41.928;25.556;2023-05-21T06:00:08;98636.75;;;17.30;87.56
11912;BME280;6016;41.928;25.556;2023-05-21T06:02:35;98756.03;;;18.07;86.92
11912;BME280;6016;41.928;25.556;2023-05-21T06:05:02;98755.00;;;18.08;87.89
11912;BME280;6016;41.928;25.556;2023-05-21T06:07:31;98725.56;;;17.94;87.55
11912;BME280;6016;41.928;25.556;2023-05-21T06:09:58;98605.28;;;17.19;88.08
11912;BME280;6016;41.928;25.556;2023-05-21T06:12:25;98712.56;;;17.84;86.84
11912;BME280;6016;41.928;25.556;2023-05-21T06:14:53;98757.28;;;18.11;87.22
11912;BME280;6016;41.928;25.556;2023-05-21T06:17:20;98761.00;;;18.17;87.49
11912;BME280;6016;41.928;25.556;2023-05-21T06:19:46;98760.81;;;18.18;86.18
11912;BME280;6016;41.928;25.556;2023-05-21T06:22:13;98705.34;;;17.78;86.42
11912;BME280;6016;41.928;25.556;2023-05-21T06:24:40;98767.41;;;18.22;86.10
11912;BME280;6016;41.928;25.556;2023-05-21T06:27:07;98771.94;;;18.22;85.88
11912;BME280;6016;41.928;25.556;2023-05-21T06:29:34;98523.16;;;16.72;85.55
11912;BME280;6016;41.928;25.556;2023-05-21T06:32:02;98773.78;;;18.28;85.40
11912;BME280;6016;41.928;25.556;2023-05-21T06:34:29;98770.09;;;18.29;85.72
11912;BME280;6016;41.928;25.556;2023-05-21T06:36:56;98774.41;;;18.30;85.72
11912;BME280;6016;41.928;25.556;2023-05-21T06:39:22;98757.16;;;18.26;86.04
11912;BME280;6016;41.928;25.556;2023-05-21T06:41:51;98763.34;;;18.33;86.53
11912;BME280;6016;41.928;25.556;2023-05-21T06:44:18;98740.66;;;18.16;86.45
11912;BME280;6016;41.928;25.556;2023-05-21T06:46:45;98755.97;;;18.35;87.54
11912;BME280;6016;41.928;25.556;2023-05-21T06:49:13;98760.06;;;18.38;86.90
11912;BME280;6016;41.928;25.556;2023-05-21T06:51:40;98760.91;;;18.38;86.95
11912;BME280;6016;41.928;25.556;2023-05-21T06:54:07;98710.88;;;18.12;86.61
11912;BME280;6016;41.928;25.556;2023-05-21T06:56:34;98701.31;;;17.89;86.98
11912;BME280;6016;41.928;25.556;2023-05-21T06:59:01;98740.03;;;18.13;86.82
11912;BME280;6016;41.928;25.556;2023-05-21T07:01:28;98680.06;;;18.03;86.57
11912;BME280;6016;41.928;25.556;2023-05-21T07:03:54;98748.34;;;18.39;86.56
11912;BME280;6016;41.928;25.556;2023-05-21T07:06:23;98766.50;;;18.57;87.13
11912;BME280;6016;41.928;25.556;2023-05-21T07:08:49;98770.00;;;18.58;86.98
11912;BME280;6016;41.928;25.556;2023-05-21T07:11:16;98749.84;;;18.48;87.30
11912;BME280;6016;41.928;25.556;2023-05-21T07:13:43;98764.69;;;18.64;87.61
11912;BME280;6016;41.928;25.556;2023-05-21T07:16:10;98601.25;;;17.65;87.90
11912;BME280;6016;41.928;25.556;2023-05-21T07:18:37;98757.72;;;18.70;88.32
11912;BME280;6016;41.928;25.556;2023-05-21T07:21:03;98759.38;;;18.71;88.28
11912;BME280;6016;41.928;25.556;2023-05-21T07:23:31;98289.34;;;15.77;87.04
11912;BME280;6016;41.928;25.556;2023-05-21T07:25:58;98755.66;;;18.65;84.12
11912;BME280;6016;41.928;25.556;2023-05-21T07:28:25;98761.19;;;18.70;84.78
11912;BME280;6016;41.928;25.556;2023-05-21T07:30:52;98761.44;;;18.76;84.73
11912;BME280;6016;41.928;25.556;2023-05-21T07:33:19;98708.34;;;18.46;86.25
11912;BME280;6016;41.928;25.556;2023-05-21T07:35:47;98735.72;;;18.68;86.66
11912;BME280;6016;41.928;25.556;2023-05-21T07:38:14;98760.97;;;18.59;85.46
11912;BME280;6016;41.928;25.556;2023-05-21T07:40:43;98646.81;;;18.12;83.95
11912;BME280;6016;41.928;25.556;2023-05-21T07:43:11;98765.38;;;18.93;84.15
11912;BME280;6016;41.928;25.556;2023-05-21T07:45:38;98749.75;;;18.83;84.36
11912;BME280;6016;41.928;25.556;2023-05-21T07:48:05;98769.50;;;18.89;84.37
11912;BME280;6016;41.928;25.556;2023-05-21T07:50:32;98761.53;;;19.09;84.92
11912;BME280;6016;41.928;25.556;2023-05-21T07:52:59;98765.66;;;19.12;84.62
11912;BME280;6016;41.928;25.556;2023-05-21T07:55:25;98671.00;;;18.66;84.72
11912;BME280;6016;41.928;25.556;2023-05-21T07:57:54;98753.94;;;19.26;83.38
11912;BME280;6016;41.928;25.556;2023-05-21T08:00:22;98756.81;;;19.32;85.25
11912;BME280;6016;41.928;25.556;2023-05-21T08:02:49;98764.03;;;19.31;85.51
11912;BME280;6016;41.928;25.556;2023-05-21T08:05:16;98734.59;;;19.11;84.73
11912;BME280;6016;41.928;25.556;2023-05-21T08:07:43;98739.13;;;19.24;83.07
11912;BME280;6016;41.928;25.556;2023-05-21T08:10:10;98757.22;;;19.49;83.41
11912;BME280;6016;41.928;25.556;2023-05-21T08:12:37;98762.78;;;19.54;80.96
11912;BME280;6016;41.928;25.556;2023-05-21T08:15:06;98771.19;;;19.64;79.72
11912;BME280;6016;41.928;25.556;2023-05-21T08:17:33;98725.34;;;19.47;82.88
11912;BME280;6016;41.928;25.556;2023-05-21T08:20:00;98768.31;;;19.79;83.50
11912;BME280;6016;41.928;25.556;2023-05-21T08:22:26;98694.91;;;19.42;82.57
11912;BME280;6016;41.928;25.556;2023-05-21T08:24:53;98766.25;;;19.81;79.97
11912;BME280;6016;41.928;25.556;2023-05-21T08:27:20;98572.34;;;18.64;79.81
11912;BME280;6016;41.928;25.556;2023-05-21T08:29:47;98750.03;;;19.63;76.65
11912;BME280;6016;41.928;25.556;2023-05-21T08:32:15;98774.72;;;19.72;74.78
11912;BME280;6016;41.928;25.556;2023-05-21T08:34:42;98705.59;;;19.42;76.72
11912;BME280;6016;41.928;25.556;2023-05-21T08:37:09;98712.97;;;19.39;76.50
11912;BME280;6016;41.928;25.556;2023-05-21T08:39:36;98747.94;;;19.72;78.85
11912;BME280;6016;41.928;25.556;2023-05-21T08:42:10;98760.88;;;19.88;78.03
11912;BME280;6016;41.928;25.556;2023-05-21T08:44:42;98765.00;;;19.91;78.35
11912;BME280;6016;41.928;25.556;2023-05-21T08:47:16;98761.47;;;19.90;78.05
11912;BME280;6016;41.928;25.556;2023-05-21T08:49:45;98704.56;;;19.36;75.29
11912;BME280;6016;41.928;25.556;2023-05-21T08:52:13;98770.16;;;19.86;75.95
11912;BME280;6016;41.928;25.556;2023-05-21T08:54:42;98697.94;;;19.45;77.26
11912;BME280;6016;41.928;25.556;2023-05-21T08:57:10;98772.19;;;19.90;75.68
11912;BME280;6016;41.928;25.556;2023-05-21T08:59:38;98722.88;;;19.52;74.06
11912;BME280;6016;41.928;25.556;2023-05-21T09:02:10;98785.81;;;19.75;75.48
11912;BME280;6016;41.928;25.556;2023-05-21T09:04:40;98776.97;;;19.75;74.87
11912;BME280;6016;41.928;25.556;2023-05-21T09:07:08;98773.06;;;19.77;74.37
11912;BME280;6016;41.928;25.556;2023-05-21T09:09:40;98714.66;;;19.40;74.99
11912;BME280;6016;41.928;25.556;2023-05-21T09:12:08;98747.34;;;19.56;75.28
11912;BME280;6016;41.928;25.556;2023-05-21T09:14:36;98721.22;;;19.45;73.05
11912;BME280;6016;41.928;25.556;2023-05-21T09:17:03;98708.66;;;19.45;74.56
11912;BME280;6016;41.928;25.556;2023-05-21T09:19:30;98748.56;;;19.74;72.94
11912;BME280;6016;41.928;25.556;2023-05-21T09:22:02;98800.22;;;20.08;71.44
11912;BME280;6016;41.928;25.556;2023-05-21T09:24:29;98638.13;;;19.06;73.50
11912;BME280;6016;41.928;25.556;2023-05-21T09:26:57;98744.81;;;19.88;74.79
11912;BME280;6016;41.928;25.556;2023-05-21T09:29:25;98798.09;;;20.23;75.69
11912;BME280;6016;41.928;25.556;2023-05-21T09:31:52;98772.84;;;20.06;71.92
11912;BME280;6016;41.928;25.556;2023-05-21T09:34:20;98603.38;;;19.06;74.62
11912;BME280;6016;41.928;25.556;2023-05-21T09:36:47;98741.09;;;19.89;74.40
11912;BME280;6016;41.928;25.556;2023-05-21T09:39:27;98781.47;;;20.15;72.68
11912;BME280;6016;41.928;25.556;2023-05-21T09:41:55;98741.53;;;19.79;69.96
11912;BME280;6016;41.928;25.556;2023-05-21T09:44:22;98670.44;;;19.24;69.88
11912;BME280;6016;41.928;25.556;2023-05-21T09:46:49;98794.47;;;19.98;68.44
11912;BME280;6016;41.928;25.556;2023-05-21T09:49:21;98786.25;;;19.92;68.19
11912;BME280;6016;41.928;25.556;2023-05-21T09:51:54;98783.75;;;19.91;68.98
11912;BME280;6016;41.928;25.556;2023-05-21T09:54:21;98747.31;;;19.76;71.97
11912;BME280;6016;41.928;25.556;2023-05-21T09:56:50;98708.44;;;19.53;72.82
11912;BME280;6016;41.928;25.556;2023-05-21T09:59:17;98716.88;;;19.57;73.55
11912;BME280;6016;41.928;25.556;2023-05-21T10:01:44;98699.22;;;19.43;70.55
11912;BME280;6016;41.928;25.556;2023-05-21T10:04:12;98743.22;;;19.60;70.65
11912;BME280;6016;41.928;25.556;2023-05-21T10:06:41;98761.13;;;19.73;72.39
11912;BME280;6016;41.928;25.556;2023-05-21T10:09:09;98726.75;;;19.57;72.64
11912;BME280;6016;41.928;25.556;2023-05-21T10:11:38;98741.75;;;19.64;73.02
11912;BME280;6016;41.928;25.556;2023-05-21T10:14:08;98776.16;;;19.94;74.16
11912;BME280;6016;41.928;25.556;2023-05-21T10:16:35;98772.00;;;19.92;73.62
11912;BME280;6016;41.928;25.556;2023-05-21T10:19:02;98724.06;;;19.63;73.92
11912;BME280;6016;41.928;25.556;2023-05-21T10:21:31;98717.31;;;19.54;72.18
11912;BME280;6016;41.928;25.556;2023-05-21T10:24:01;98775.31;;;19.94;73.03
11912;BME280;6016;41.928;25.556;2023-05-21T10:26:29;98777.78;;;19.95;71.87
11912;BME280;6016;41.928;25.556;2023-05-21T10:28:56;98775.72;;;19.98;74.11
11912;BME280;6016;41.928;25.556;2023-05-21T10:31:26;98721.81;;;19.67;72.43
11912;BME280;6016;41.928;25.556;2023-05-21T10:33:53;98743.22;;;19.67;69.95
11912;BME280;6016;41.928;25.556;2023-05-21T10:36:20;98781.47;;;19.88;70.43
11912;BME280;6016;41.928;25.556;2023-05-21T10:38:47;98779.22;;;19.85;68.81
11912;BME280;6016;41.928;25.556;2023-05-21T10:41:14;98775.28;;;19.87;70.62
11912;BME280;6016;41.928;25.556;2023-05-21T10:43:47;98766.03;;;19.90;70.04
11912;BME280;6016;41.928;25.556;2023-05-21T10:46:45;98772.00;;;19.99;70.11
11912;BME280;6016;41.928;25.556;2023-05-21T10:49:44;98784.38;;;20.00;68.50
11912;BME280;6016;41.928;25.556;2023-05-21T10:52:24;98733.97;;;19.70;68.76
11912;BME280;6016;41.928;25.556;2023-05-21T10:55:08;98783.31;;;20.07;71.13
11912;BME280;6016;41.928;25.556;2023-05-21T10:58:12;98784.53;;;20.18;71.61
11912;BME280;6016;41.928;25.556;2023-05-21T11:00:43;98780.63;;;20.07;69.32
11912;BME280;6016;41.928;25.556;2023-05-21T11:03:12;98751.22;;;19.94;69.04
11912;BME280;6016;41.928;25.556;2023-05-21T11:05:50;98791.69;;;20.31;71.24
11912;BME280;6016;41.928;25.556;2023-05-21T11:08:20;98793.56;;;20.31;70.62
11912;BME280;6016;41.928;25.556;2023-05-21T11:10:51;98783.63;;;20.38;71.15
11912;BME280;6016;41.928;25.556;2023-05-21T11:13:18;98781.13;;;20.50;71.13
11912;BME280;6016;41.928;25.556;2023-05-21T11:16:04;98780.66;;;20.60;69.78
11912;BME280;6016;41.928;25.556;2023-05-21T11:19:01;98782.69;;;20.71;70.98
11912;BME280;6016;41.928;25.556;2023-05-21T11:21:29;98783.28;;;20.73;71.63
11912;BME280;6016;41.928;25.556;2023-05-21T11:23:59;98783.19;;;20.55;69.42
11912;BME280;6016;41.928;25.556;2023-05-21T11:26:27;98783.97;;;20.62;70.60
11912;BME280;6016;41.928;25.556;2023-05-21T11:29:07;98777.59;;;20.56;70.72
11912;BME280;6016;41.928;25.556;2023-05-21T11:31:35;98782.34;;;20.54;69.55
11912;BME280;6016;41.928;25.556;2023-05-21T11:34:12;98776.00;;;20.42;71.46
11912;BME280;6016;41.928;25.556;2023-05-21T11:36:40;98776.38;;;20.52;69.44
11912;BME280;6016;41.928;25.556;2023-05-21T11:39:07;98774.53;;;20.46;71.31
11912;BME280;6016;41.928;25.556;2023-05-21T11:41:52;98759.31;;;20.40;70.64
11912;BME280;6016;41.928;25.556;2023-05-21T11:44:30;98768.38;;;20.45;70.49
11912;BME280;6016;41.928;25.556;2023-05-21T11:47:04;98771.44;;;20.49;71.88
11912;BME280;6016;41.928;25.556;2023-05-21T11:49:33;98768.09;;;20.53;71.84
11912;BME280;6016;41.928;25.556;2023-05-21T11:52:00;98752.09;;;20.40;71.75
11912;BME280;6016;41.928;25.556;2023-05-21T11:54:28;98764.78;;;20.58;72.18
11912;BME280;6016;41.928;25.556;2023-05-21T11:56:58;98756.56;;;20.60;71.83
11912;BME280;6016;41.928;25.556;2023-05-21T11:59:26;98710.09;;;20.34;70.85
11912;BME280;6016;41.928;25.556;2023-05-21T12:01:53;98752.34;;;20.71;70.70
11912;BME280;6016;41.928;25.556;2023-05-21T12:04:20;98745.56;;;20.75;70.13
11912;BME280;6016;41.928;25.556;2023-05-21T12:06:48;98744.72;;;20.74;69.13
11912;BME280;6016;41.928;25.556;2023-05-21T12:09:16;98746.56;;;20.80;70.66
11912;BME280;6016;41.928;25.556;2023-05-21T12:11:43;98711.59;;;20.62;71.92
11912;BME280;6016;41.928;25.556;2023-05-21T12:14:10;98742.63;;;20.83;71.94
11912;BME280;6016;41.928;25.556;2023-05-21T12:16:37;98738.69;;;20.86;71.74
11912;BME280;6016;41.928;25.556;2023-05-21T12:19:05;98537.19;;;19.60;70.61
11912;BME280;6016;41.928;25.556;2023-05-21T12:21:33;98654.47;;;20.29;72.06
11912;BME280;6016;41.928;25.556;2023-05-21T12:24:02;98702.47;;;20.70;71.98
11912;BME280;6016;41.928;25.556;2023-05-21T12:26:29;98733.94;;;20.88;71.14
11912;BME280;6016;41.928;25.556;2023-05-21T12:28:57;98731.66;;;20.91;70.78
11912;BME280;6016;41.928;25.556;2023-05-21T12:31:24;98725.84;;;20.94;70.56
11912;BME280;6016;41.928;25.556;2023-05-21T12:33:51;98724.41;;;20.99;69.64
11912;BME280;6016;41.928;25.556;2023-05-21T12:36:24;98724.34;;;21.05;69.89
11912;BME280;6016;41.928;25.556;2023-05-21T12:38:51;98715.06;;;21.01;70.77
11912;BME280;6016;41.928;25.556;2023-05-21T12:41:20;98668.81;;;20.80;70.26
11912;BME280;6016;41.928;25.556;2023-05-21T12:43:47;98547.03;;;20.12;69.39
11912;BME280;6016;41.928;25.556;2023-05-21T12:46:15;98628.41;;;20.75;69.73
11912;BME280;6016;41.928;25.556;2023-05-21T12:48:47;98673.03;;;21.20;69.50
11912;BME280;6016;41.928;25.556;2023-05-21T12:51:14;98107.91;;;17.38;66.31
11912;BME280;6016;41.928;25.556;2023-05-21T12:53:42;98708.63;;;21.34;66.62
11912;BME280;6016;41.928;25.556;2023-05-21T12:56:09;98695.72;;;21.25;66.36
11912;BME280;6016;41.928;25.556;2023-05-21T12:58:38;98703.88;;;21.11;66.06
11912;BME280;6016;41.928;25.556;2023-05-21T13:01:06;98717.34;;;21.30;68.15
11912;BME280;6016;41.928;25.556;2023-05-21T13:03:33;98602.81;;;20.54;68.31
11912;BME280;6016;41.928;25.556;2023-05-21T13:06:00;98708.91;;;21.26;67.73